Etusivu
METAR-TAF:

METAR-TAF

Lentoasemat :

Kirkkoniemi, Norja

Leveyspiiri: 69-44N, Pituuspiiri: 029-54E, korkeus merenpinnasta: 9 m

Tämänhetkinen sää

Tämä raportti tehtiin 30 minuuttia sitten, kello 19.50 UTC
Tuuli 20 kn etelästä/lounaasta
Lämpötila 1°C
Kosteus 80%
Ilmanpaine 1009 hPa
Näkyvyys 10 km tai enemmän
Hajonneita pilviä 2600 ft:n korkeudessa
Pilvistä 3300 ft:n korkeudessa

METAR: ENKR 031950Z 20020KT 9999 BKN026 OVC033 01/M02 Q1009 RMK WIND 731FT 22031KT

Aika: 21:20 (20:20 UTC)

Sääennuste

Tämä raportti tehtiin 3 tuntia ja 20 minuuttia sitten, kello 17.00 UTC
Ennuste voimassa 03. päivästä klo 18 UTC - 04. päivään klo 03 UTC
Tuuli 20 kn etelästä/lounaasta
Näkyvyys 10 km tai enemmän
Hajanaisia pilviä 2500 ft:n korkeudessa
Hajonneita pilviä 3000 ft:n korkeudessa
Ajoittain
03. päivästä klo 18 UTC - 04. päivään klo 03 UTC
Tuuli 20 kn etelästä/lounaasta puuskistuen 30 kn:hen

TAF: ENKR 031700Z 0318/0403 20020KT 9999 SCT025 BKN030 TEMPO 0318/0403 20020G30KT

Säähavainnot ja -ennusteet yli 4000 lentoasemalta (METAR- ja TAF-raportit).

Käytössä olevat sääasemat on merkitty karttaan keltaisilla ja punaisilla pisteillä.

Aseta hiiri pisteen päälle nähdäksesi sääaseman nimen.

Klikkaa sitten nähdäksesi säähavainnot ja -ennusteet.

Kartan vaihtaminen: klikkaa mustalla rastilla varustettuja vihreitä pisteitä, niin voit zoomata sisään; viivalla varustettua vihreää pistettä, niin voit zoomata ulos tai vihreitä nuolia, niin pääset viereisille kartoille.


METAR-TAF: